»·PEaware :: RAKE11 KLSV-KLSV

RAKE11 :: KLSV-KLSV

FLIGHT INFORMATION

Flight Status: Arrived
Operator: Unknown
More flights by this operator :: More flights under this callsign
Pilot: Anonymous 3903 (3903)
Aircraft: NORTHROP F-5 FREEDON FIGHTER
(F5)
More flights by this aircraft type
Origin: KLSV Nellis AFB
United States
Destination: KLSV Nellis AFB
United States
More flights between these airports :: More routes between these airports
Route: +FYTTR4 FYTTR
File this flight plan on PilotEdge
Remarks:
Altitude:
(Current/Filed)
0ft
Speed:
(Current/Filed)
0kts
Departed: 10-Apr-17 01:44 PM
Arrived: 10-Apr-17 02:15 PM
Distance/Time
Traveled:
1nm/0:30
Distance/Time
To Go:
Arrived

Flight Plot

Page will automatically refresh every two minutes.

Flight plan parsing failed; only flown route is shown


Map Options




Map Legend


Flown Route
Filed Route
Departure Airport
Arrival Airport
Navaid (VOR, NDB)
Fix

Horizontal Profiles

Position Reports

Time Latitude Longitude Heading Altitude Ground
Speed
10-Apr-17 13:26 36.231056 -115.046521 220 1852ft 0kts
10-Apr-17 13:27 36.231056 -115.046521 220 1852ft 0kts
10-Apr-17 13:28 36.231056 -115.046521 220 1852ft 0kts
10-Apr-17 13:29 36.231056 -115.046521 220 1852ft 0kts
10-Apr-17 13:30 36.231056 -115.046521 220 1852ft 0kts
10-Apr-17 13:31 36.231056 -115.046521 220 1852ft 0kts
10-Apr-17 13:32 36.231056 -115.046521 220 1852ft 0kts
10-Apr-17 13:33 36.231056 -115.046521 220 1852ft 0kts
10-Apr-17 13:34 36.231056 -115.046521 220 1852ft 0kts
10-Apr-17 13:35 36.231056 -115.046521 220 1852ft 0kts
10-Apr-17 13:36 36.231056 -115.046521 220 1852ft 0kts
10-Apr-17 13:37 36.231056 -115.046521 220 1852ft 0kts
10-Apr-17 13:38 36.231056 -115.046521 220 1852ft 0kts
10-Apr-17 13:39 36.231056 -115.046521 220 1852ft 0kts
10-Apr-17 13:40 36.231056 -115.046521 220 1852ft 0kts
10-Apr-17 13:41 36.231056 -115.046521 220 1852ft 0kts
10-Apr-17 13:42 36.230672 -115.046547 129 1852ft 15kts
10-Apr-17 13:43 36.227332 -115.047489 129 1848ft 0kts
10-Apr-17 13:44 36.227332 -115.047489 129 1848ft 0kts
10-Apr-17 13:45 36.229680 -115.043567 40 1847ft 103kts
10-Apr-17 13:46 36.287804 -114.997175 340 3458ft 317kts
10-Apr-17 13:47 36.332357 -115.085869 280 6932ft 346kts
10-Apr-17 13:48 36.356409 -115.207379 284 8091ft 356kts
10-Apr-17 13:49 36.337718 -115.305064 200 7940ft 305kts
10-Apr-17 13:50 36.292547 -115.364748 284 8723ft 256kts
10-Apr-17 13:51 36.310254 -115.452707 281 10905ft 261kts
10-Apr-17 13:52 36.326685 -115.541531 278 13025ft 260kts
10-Apr-17 13:53 36.340424 -115.635083 278 14205ft 299kts
10-Apr-17 13:54 36.395012 -115.708122 355 14673ft 350kts
10-Apr-17 13:55 36.500568 -115.705180 1 14576ft 408kts
10-Apr-17 13:56 36.621375 -115.695364 3 14956ft 492kts
10-Apr-17 13:57 36.734800 -115.667338 15 17923ft 442kts
10-Apr-17 13:58 36.767106 -115.658606 29 19444ft 360kts
10-Apr-17 13:59 36.796754 -115.640899 255 17143ft 373kts
10-Apr-17 14:00 36.840514 -115.563626 353 11209ft 92kts
10-Apr-17 14:01 36.783609 -115.629518 296 16768ft 191kts
10-Apr-17 14:02 36.828084 -115.716661 194 7939ft 362kts
10-Apr-17 14:03 36.729951 -115.690933 172 10483ft 400kts
10-Apr-17 14:04 36.618713 -115.681660 195 11640ft 348kts
10-Apr-17 14:05 36.544313 -115.643787 109 11547ft 331kts
10-Apr-17 14:06 36.496808 -115.530094 120 11646ft 403kts
10-Apr-17 14:07 36.435426 -115.405615 119 11637ft 438kts
10-Apr-17 14:08 36.374433 -115.279980 122 10380ft 350kts
10-Apr-17 14:09 36.329577 -115.194191 123 8556ft 281kts
10-Apr-17 14:10 36.279238 -115.124177 176 7430ft 290kts
10-Apr-17 14:11 36.302549 -115.058610 40 6090ft 346kts
10-Apr-17 14:12 36.302180 -114.972195 169 5661ft 286kts
10-Apr-17 14:13 36.239838 -115.031625 220 3709ft 274kts
10-Apr-17 14:14 36.270827 -115.030150 76 2807ft 220kts
10-Apr-17 14:15 36.236361 -115.036109 220 1855ft 117kts
10-Apr-17 14:16 36.228291 -115.047446 40 1849ft 27kts
10-Apr-17 14:17 36.230414 -115.046925 220 1852ft 0kts

Navigation Log

Ident Type
Flight plan parsing failed, navigation log unavailable